sensor_id;sensor_type;location;lat;lon;timestamp;P1;durP1;ratioP1;P2;durP2;ratioP2
75272;SDS011;63869;52.344;16.928;2023-04-24T00:00:53;14.07;;;10.07;;
75272;SDS011;63869;52.344;16.928;2023-04-24T00:03:21;15.98;;;10.30;;
75272;SDS011;63869;52.344;16.928;2023-04-24T00:05:49;15.95;;;10.85;;
75272;SDS011;63869;52.344;16.928;2023-04-24T00:08:15;18.58;;;11.80;;
75272;SDS011;63869;52.344;16.928;2023-04-24T00:10:41;16.23;;;10.65;;
75272;SDS011;63869;52.344;16.928;2023-04-24T00:13:06;17.05;;;10.23;;
75272;SDS011;63869;52.344;16.928;2023-04-24T00:15:32;14.77;;;11.15;;
75272;SDS011;63869;52.344;16.928;2023-04-24T00:17:58;16.60;;;10.65;;
75272;SDS011;63869;52.344;16.928;2023-04-24T00:20:23;15.75;;;11.13;;
75272;SDS011;63869;52.344;16.928;2023-04-24T00:22:48;16.15;;;10.95;;
75272;SDS011;63869;52.344;16.928;2023-04-24T00:25:13;16.25;;;11.05;;
75272;SDS011;63869;52.344;16.928;2023-04-24T00:27:39;15.63;;;11.02;;
75272;SDS011;63869;52.344;16.928;2023-04-24T00:30:04;14.27;;;10.00;;
75272;SDS011;63869;52.344;16.928;2023-04-24T00:32:31;13.80;;;9.95;;
75272;SDS011;63869;52.344;16.928;2023-04-24T00:34:56;14.82;;;10.55;;
75272;SDS011;63869;52.344;16.928;2023-04-24T00:37:21;16.65;;;10.65;;
75272;SDS011;63869;52.344;16.928;2023-04-24T00:39:46;16.33;;;9.90;;
75272;SDS011;63869;52.344;16.928;2023-04-24T00:42:12;14.85;;;10.30;;
75272;SDS011;63869;52.344;16.928;2023-04-24T00:44:37;15.43;;;10.43;;
75272;SDS011;63869;52.344;16.928;2023-04-24T00:47:03;18.25;;;10.70;;
75272;SDS011;63869;52.344;16.928;2023-04-24T00:49:29;15.10;;;10.38;;
75272;SDS011;63869;52.344;16.928;2023-04-24T00:51:55;14.20;;;9.95;;
75272;SDS011;63869;52.344;16.928;2023-04-24T00:54:21;15.88;;;11.40;;
75272;SDS011;63869;52.344;16.928;2023-04-24T00:56:47;17.95;;;10.77;;
75272;SDS011;63869;52.344;16.928;2023-04-24T00:59:13;17.63;;;11.00;;
75272;SDS011;63869;52.344;16.928;2023-04-24T01:01:42;15.40;;;10.32;;
75272;SDS011;63869;52.344;16.928;2023-04-24T01:04:09;14.77;;;10.43;;
75272;SDS011;63869;52.344;16.928;2023-04-24T01:06:35;19.50;;;11.05;;
75272;SDS011;63869;52.344;16.928;2023-04-24T01:09:04;14.50;;;10.95;;
75272;SDS011;63869;52.344;16.928;2023-04-24T01:11:30;17.52;;;11.30;;
75272;SDS011;63869;52.344;16.928;2023-04-24T01:13:56;19.65;;;11.93;;
75272;SDS011;63869;52.344;16.928;2023-04-24T01:16:22;18.05;;;12.07;;
75272;SDS011;63869;52.344;16.928;2023-04-24T01:18:47;16.48;;;11.35;;
75272;SDS011;63869;52.344;16.928;2023-04-24T01:21:13;16.55;;;11.80;;
75272;SDS011;63869;52.344;16.928;2023-04-24T01:23:41;25.50;;;17.30;;
75272;SDS011;63869;52.344;16.928;2023-04-24T01:26:08;21.73;;;13.98;;
75272;SDS011;63869;52.344;16.928;2023-04-24T01:28:33;19.10;;;13.07;;
75272;SDS011;63869;52.344;16.928;2023-04-24T01:30:58;18.45;;;11.50;;
75272;SDS011;63869;52.344;16.928;2023-04-24T01:33:24;15.50;;;10.80;;
75272;SDS011;63869;52.344;16.928;2023-04-24T01:35:50;15.85;;;11.32;;
75272;SDS011;63869;52.344;16.928;2023-04-24T01:38:16;17.75;;;11.73;;
75272;SDS011;63869;52.344;16.928;2023-04-24T01:40:41;19.15;;;11.48;;
75272;SDS011;63869;52.344;16.928;2023-04-24T01:43:06;16.20;;;11.27;;
75272;SDS011;63869;52.344;16.928;2023-04-24T01:45:32;16.50;;;11.05;;
75272;SDS011;63869;52.344;16.928;2023-04-24T01:47:57;15.55;;;11.15;;
75272;SDS011;63869;52.344;16.928;2023-04-24T01:50:22;17.77;;;10.48;;
75272;SDS011;63869;52.344;16.928;2023-04-24T01:52:48;14.90;;;10.30;;
75272;SDS011;63869;52.344;16.928;2023-04-24T01:55:13;14.63;;;10.65;;
75272;SDS011;63869;52.344;16.928;2023-04-24T01:57:38;14.95;;;10.43;;
75272;SDS011;63869;52.344;16.928;2023-04-24T02:00:05;16.15;;;10.23;;
75272;SDS011;63869;52.344;16.928;2023-04-24T02:02:32;16.95;;;11.43;;
75272;SDS011;63869;52.344;16.928;2023-04-24T02:04:57;16.45;;;11.20;;
75272;SDS011;63869;52.344;16.928;2023-04-24T02:07:22;18.42;;;11.60;;
75272;SDS011;63869;52.344;16.928;2023-04-24T02:09:48;17.90;;;10.68;;
75272;SDS011;63869;52.344;16.928;2023-04-24T02:12:14;15.32;;;10.15;;
75272;SDS011;63869;52.344;16.928;2023-04-24T02:14:40;16.60;;;11.02;;
75272;SDS011;63869;52.344;16.928;2023-04-24T02:17:05;16.02;;;11.05;;
75272;SDS011;63869;52.344;16.928;2023-04-24T02:19:31;15.93;;;11.30;;
75272;SDS011;63869;52.344;16.928;2023-04-24T02:21:56;17.02;;;11.10;;
75272;SDS011;63869;52.344;16.928;2023-04-24T02:24:22;18.35;;;10.43;;
75272;SDS011;63869;52.344;16.928;2023-04-24T02:26:47;14.30;;;9.85;;
75272;SDS011;63869;52.344;16.928;2023-04-24T02:29:12;15.90;;;10.00;;
75272;SDS011;63869;52.344;16.928;2023-04-24T02:31:38;19.42;;;10.43;;
75272;SDS011;63869;52.344;16.928;2023-04-24T02:34:03;15.85;;;9.60;;
75272;SDS011;63869;52.344;16.928;2023-04-24T02:36:28;15.43;;;9.70;;
75272;SDS011;63869;52.344;16.928;2023-04-24T02:38:53;14.05;;;9.48;;
75272;SDS011;63869;52.344;16.928;2023-04-24T02:41:19;13.32;;;9.55;;
75272;SDS011;63869;52.344;16.928;2023-04-24T02:43:44;13.93;;;9.57;;
75272;SDS011;63869;52.344;16.928;2023-04-24T02:46:10;14.90;;;10.05;;
75272;SDS011;63869;52.344;16.928;2023-04-24T02:48:35;14.68;;;9.68;;
75272;SDS011;63869;52.344;16.928;2023-04-24T02:51:00;14.63;;;9.90;;
75272;SDS011;63869;52.344;16.928;2023-04-24T02:53:26;15.07;;;10.52;;
75272;SDS011;63869;52.344;16.928;2023-04-24T02:55:51;13.85;;;9.70;;
75272;SDS011;63869;52.344;16.928;2023-04-24T02:58:16;14.10;;;10.00;;
75272;SDS011;63869;52.344;16.928;2023-04-24T03:00:42;13.32;;;9.27;;
75272;SDS011;63869;52.344;16.928;2023-04-24T03:03:08;14.55;;;9.52;;
75272;SDS011;63869;52.344;16.928;2023-04-24T03:05:34;14.50;;;9.65;;
75272;SDS011;63869;52.344;16.928;2023-04-24T03:07:59;15.40;;;9.77;;
75272;SDS011;63869;52.344;16.928;2023-04-24T03:10:25;12.63;;;9.55;;
75272;SDS011;63869;52.344;16.928;2023-04-24T03:12:50;12.85;;;8.88;;
75272;SDS011;63869;52.344;16.928;2023-04-24T03:15:15;11.60;;;8.98;;
75272;SDS011;63869;52.344;16.928;2023-04-24T03:17:41;15.00;;;10.02;;
75272;SDS011;63869;52.344;16.928;2023-04-24T03:20:06;14.70;;;9.70;;
75272;SDS011;63869;52.344;16.928;2023-04-24T03:22:35;13.05;;;9.45;;
75272;SDS011;63869;52.344;16.928;2023-04-24T03:25:00;14.57;;;9.80;;
75272;SDS011;63869;52.344;16.928;2023-04-24T03:27:26;15.85;;;9.70;;
75272;SDS011;63869;52.344;16.928;2023-04-24T03:29:51;15.15;;;9.55;;
75272;SDS011;63869;52.344;16.928;2023-04-24T03:32:20;13.18;;;9.52;;
75272;SDS011;63869;52.344;16.928;2023-04-24T03:34:46;15.45;;;10.43;;
75272;SDS011;63869;52.344;16.928;2023-04-24T03:37:11;13.40;;;9.60;;
75272;SDS011;63869;52.344;16.928;2023-04-24T03:39:36;17.60;;;10.43;;
75272;SDS011;63869;52.344;16.928;2023-04-24T03:42:01;16.67;;;10.50;;
75272;SDS011;63869;52.344;16.928;2023-04-24T03:44:27;14.75;;;10.30;;
75272;SDS011;63869;52.344;16.928;2023-04-24T03:46:52;16.10;;;9.30;;
75272;SDS011;63869;52.344;16.928;2023-04-24T03:49:18;14.07;;;9.13;;
75272;SDS011;63869;52.344;16.928;2023-04-24T03:51:43;13.77;;;9.52;;
75272;SDS011;63869;52.344;16.928;2023-04-24T03:54:08;14.98;;;9.48;;
75272;SDS011;63869;52.344;16.928;2023-04-24T03:56:34;15.10;;;10.70;;
75272;SDS011;63869;52.344;16.928;2023-04-24T03:58:59;16.90;;;10.77;;
75272;SDS011;63869;52.344;16.928;2023-04-24T04:01:25;14.88;;;10.13;;
75272;SDS011;63869;52.344;16.928;2023-04-24T04:03:50;15.15;;;10.20;;
75272;SDS011;63869;52.344;16.928;2023-04-24T04:06:16;15.25;;;10.52;;
75272;SDS011;63869;52.344;16.928;2023-04-24T04:08:41;15.93;;;10.65;;
75272;SDS011;63869;52.344;16.928;2023-04-24T04:11:06;20.13;;;11.50;;
75272;SDS011;63869;52.344;16.928;2023-04-24T04:13:31;17.70;;;11.43;;
75272;SDS011;63869;52.344;16.928;2023-04-24T04:15:57;20.13;;;11.52;;
75272;SDS011;63869;52.344;16.928;2023-04-24T04:18:22;17.77;;;11.30;;
75272;SDS011;63869;52.344;16.928;2023-04-24T04:20:47;16.33;;;10.27;;
75272;SDS011;63869;52.344;16.928;2023-04-24T04:23:13;14.27;;;9.93;;
75272;SDS011;63869;52.344;16.928;2023-04-24T04:25:38;12.82;;;9.48;;
75272;SDS011;63869;52.344;16.928;2023-04-24T04:28:03;14.57;;;9.43;;
75272;SDS011;63869;52.344;16.928;2023-04-24T04:30:29;15.05;;;9.75;;
75272;SDS011;63869;52.344;16.928;2023-04-24T04:32:57;14.43;;;9.93;;
75272;SDS011;63869;52.344;16.928;2023-04-24T04:35:24;13.73;;;9.13;;
75272;SDS011;63869;52.344;16.928;2023-04-24T04:37:50;14.43;;;9.35;;
75272;SDS011;63869;52.344;16.928;2023-04-24T04:40:16;12.65;;;9.32;;
75272;SDS011;63869;52.344;16.928;2023-04-24T04:42:42;14.55;;;9.35;;
75272;SDS011;63869;52.344;16.928;2023-04-24T04:45:10;15.27;;;9.27;;
75272;SDS011;63869;52.344;16.928;2023-04-24T04:47:36;15.52;;;9.90;;
75272;SDS011;63869;52.344;16.928;2023-04-24T04:50:02;15.23;;;9.65;;
75272;SDS011;63869;52.344;16.928;2023-04-24T04:52:28;14.73;;;10.02;;
75272;SDS011;63869;52.344;16.928;2023-04-24T04:54:54;14.55;;;10.23;;
75272;SDS011;63869;52.344;16.928;2023-04-24T04:57:20;13.68;;;9.90;;
75272;SDS011;63869;52.344;16.928;2023-04-24T04:59:46;15.00;;;10.20;;
75272;SDS011;63869;52.344;16.928;2023-04-24T05:02:11;14.88;;;10.23;;
75272;SDS011;63869;52.344;16.928;2023-04-24T05:04:37;14.15;;;9.75;;
75272;SDS011;63869;52.344;16.928;2023-04-24T05:07:03;14.07;;;9.77;;
75272;SDS011;63869;52.344;16.928;2023-04-24T05:09:28;16.30;;;10.20;;
75272;SDS011;63869;52.344;16.928;2023-04-24T05:11:54;13.70;;;9.27;;
75272;SDS011;63869;52.344;16.928;2023-04-24T05:14:20;14.40;;;9.38;;
75272;SDS011;63869;52.344;16.928;2023-04-24T05:16:45;13.45;;;9.32;;
75272;SDS011;63869;52.344;16.928;2023-04-24T05:19:11;18.48;;;11.55;;
75272;SDS011;63869;52.344;16.928;2023-04-24T05:21:40;17.23;;;9.98;;
75272;SDS011;63869;52.344;16.928;2023-04-24T05:24:05;16.58;;;10.10;;
75272;SDS011;63869;52.344;16.928;2023-04-24T05:26:31;16.63;;;11.23;;
75272;SDS011;63869;52.344;16.928;2023-04-24T05:28:56;14.80;;;9.77;;
75272;SDS011;63869;52.344;16.928;2023-04-24T05:31:22;13.50;;;9.32;;
75272;SDS011;63869;52.344;16.928;2023-04-24T05:33:47;12.48;;;9.38;;
75272;SDS011;63869;52.344;16.928;2023-04-24T05:36:12;12.55;;;8.95;;
75272;SDS011;63869;52.344;16.928;2023-04-24T05:38:38;14.73;;;9.60;;
75272;SDS011;63869;52.344;16.928;2023-04-24T05:41:03;12.20;;;8.73;;
75272;SDS011;63869;52.344;16.928;2023-04-24T05:43:29;13.60;;;9.85;;
75272;SDS011;63869;52.344;16.928;2023-04-24T05:45:54;14.40;;;8.93;;
75272;SDS011;63869;52.344;16.928;2023-04-24T05:48:20;14.00;;;9.10;;
75272;SDS011;63869;52.344;16.928;2023-04-24T05:50:47;13.30;;;9.25;;
75272;SDS011;63869;52.344;16.928;2023-04-24T05:53:12;15.02;;;9.25;;
75272;SDS011;63869;52.344;16.928;2023-04-24T05:55:38;15.05;;;9.40;;
75272;SDS011;63869;52.344;16.928;2023-04-24T05:58:03;12.75;;;8.90;;
75272;SDS011;63869;52.344;16.928;2023-04-24T06:00:29;14.77;;;8.98;;
75272;SDS011;63869;52.344;16.928;2023-04-24T06:02:55;14.65;;;9.35;;
75272;SDS011;63869;52.344;16.928;2023-04-24T06:05:20;13.00;;;9.20;;
75272;SDS011;63869;52.344;16.928;2023-04-24T06:07:45;13.77;;;9.55;;
75272;SDS011;63869;52.344;16.928;2023-04-24T06:10:11;12.70;;;8.93;;
75272;SDS011;63869;52.344;16.928;2023-04-24T06:12:36;11.60;;;8.93;;
75272;SDS011;63869;52.344;16.928;2023-04-24T06:15:02;12.32;;;8.85;;
75272;SDS011;63869;52.344;16.928;2023-04-24T06:17:28;13.68;;;9.23;;
75272;SDS011;63869;52.344;16.928;2023-04-24T06:19:55;13.85;;;10.02;;
75272;SDS011;63869;52.344;16.928;2023-04-24T06:22:20;14.13;;;9.52;;
75272;SDS011;63869;52.344;16.928;2023-04-24T06:24:47;15.30;;;9.02;;
75272;SDS011;63869;52.344;16.928;2023-04-24T06:27:13;13.55;;;9.70;;
75272;SDS011;63869;52.344;16.928;2023-04-24T06:29:39;12.73;;;9.10;;
75272;SDS011;63869;52.344;16.928;2023-04-24T06:32:04;13.05;;;9.10;;
75272;SDS011;63869;52.344;16.928;2023-04-24T06:34:30;14.02;;;9.45;;
75272;SDS011;63869;52.344;16.928;2023-04-24T06:36:55;14.07;;;9.15;;
75272;SDS011;63869;52.344;16.928;2023-04-24T06:39:21;12.77;;;9.25;;
75272;SDS011;63869;52.344;16.928;2023-04-24T06:41:46;13.93;;;8.88;;
75272;SDS011;63869;52.344;16.928;2023-04-24T06:44:13;12.48;;;9.10;;
75272;SDS011;63869;52.344;16.928;2023-04-24T06:46:39;11.35;;;8.60;;
75272;SDS011;63869;52.344;16.928;2023-04-24T06:49:05;14.93;;;8.88;;
75272;SDS011;63869;52.344;16.928;2023-04-24T06:51:31;14.05;;;9.77;;
75272;SDS011;63869;52.344;16.928;2023-04-24T06:53:57;13.75;;;8.98;;
75272;SDS011;63869;52.344;16.928;2023-04-24T06:56:23;12.50;;;9.45;;
75272;SDS011;63869;52.344;16.928;2023-04-24T06:58:49;14.30;;;9.63;;
75272;SDS011;63869;52.344;16.928;2023-04-24T07:01:14;14.85;;;9.40;;
75272;SDS011;63869;52.344;16.928;2023-04-24T07:03:39;13.90;;;9.32;;
75272;SDS011;63869;52.344;16.928;2023-04-24T07:06:05;11.82;;;9.00;;
75272;SDS011;63869;52.344;16.928;2023-04-24T07:08:30;12.43;;;8.95;;
75272;SDS011;63869;52.344;16.928;2023-04-24T07:10:56;11.95;;;8.68;;
75272;SDS011;63869;52.344;16.928;2023-04-24T07:13:23;13.68;;;9.23;;
75272;SDS011;63869;52.344;16.928;2023-04-24T07:15:49;11.93;;;8.20;;
75272;SDS011;63869;52.344;16.928;2023-04-24T07:18:19;13.88;;;8.57;;
75272;SDS011;63869;52.344;16.928;2023-04-24T07:20:45;12.57;;;8.40;;
75272;SDS011;63869;52.344;16.928;2023-04-24T07:23:10;12.50;;;9.30;;
75272;SDS011;63869;52.344;16.928;2023-04-24T07:25:36;10.73;;;8.30;;
75272;SDS011;63869;52.344;16.928;2023-04-24T07:28:01;12.82;;;8.85;;
75272;SDS011;63869;52.344;16.928;2023-04-24T07:30:26;13.35;;;9.48;;
75272;SDS011;63869;52.344;16.928;2023-04-24T07:32:54;12.02;;;8.90;;
75272;SDS011;63869;52.344;16.928;2023-04-24T07:35:19;11.55;;;8.77;;
75272;SDS011;63869;52.344;16.928;2023-04-24T07:37:45;14.25;;;9.23;;
75272;SDS011;63869;52.344;16.928;2023-04-24T07:40:12;13.40;;;9.25;;
75272;SDS011;63869;52.344;16.928;2023-04-24T07:42:37;14.60;;;9.45;;
75272;SDS011;63869;52.344;16.928;2023-04-24T07:45:03;12.23;;;8.90;;
75272;SDS011;63869;52.344;16.928;2023-04-24T07:47:29;12.55;;;8.43;;
75272;SDS011;63869;52.344;16.928;2023-04-24T07:49:54;13.25;;;8.05;;
75272;SDS011;63869;52.344;16.928;2023-04-24T07:52:20;11.77;;;8.18;;
75272;SDS011;63869;52.344;16.928;2023-04-24T07:54:45;11.10;;;7.70;;
75272;SDS011;63869;52.344;16.928;2023-04-24T07:57:10;11.32;;;7.90;;
75272;SDS011;63869;52.344;16.928;2023-04-24T07:59:36;9.90;;;7.68;;
75272;SDS011;63869;52.344;16.928;2023-04-24T08:02:02;13.00;;;8.20;;
75272;SDS011;63869;52.344;16.928;2023-04-24T08:04:27;11.00;;;7.80;;
75272;SDS011;63869;52.344;16.928;2023-04-24T08:06:52;13.77;;;7.65;;
75272;SDS011;63869;52.344;16.928;2023-04-24T08:09:18;10.60;;;7.53;;
75272;SDS011;63869;52.344;16.928;2023-04-24T08:11:43;10.05;;;8.05;;
75272;SDS011;63869;52.344;16.928;2023-04-24T08:14:09;10.05;;;7.63;;
75272;SDS011;63869;52.344;16.928;2023-04-24T08:16:34;11.63;;;8.02;;
75272;SDS011;63869;52.344;16.928;2023-04-24T08:19:00;11.00;;;7.35;;
75272;SDS011;63869;52.344;16.928;2023-04-24T08:21:26;11.52;;;8.45;;
75272;SDS011;63869;52.344;16.928;2023-04-24T08:23:52;10.30;;;7.60;;
75272;SDS011;63869;52.344;16.928;2023-04-24T08:26:18;11.98;;;8.40;;
75272;SDS011;63869;52.344;16.928;2023-04-24T08:28:43;10.60;;;7.53;;
75272;SDS011;63869;52.344;16.928;2023-04-24T08:31:08;11.77;;;8.02;;
75272;SDS011;63869;52.344;16.928;2023-04-24T08:33:34;11.85;;;7.95;;
75272;SDS011;63869;52.344;16.928;2023-04-24T08:36:03;14.23;;;8.73;;
75272;SDS011;63869;52.344;16.928;2023-04-24T08:38:29;17.05;;;8.25;;
75272;SDS011;63869;52.344;16.928;2023-04-24T08:40:56;11.30;;;7.60;;
75272;SDS011;63869;52.344;16.928;2023-04-24T08:43:23;10.85;;;8.30;;
75272;SDS011;63869;52.344;16.928;2023-04-24T08:45:49;10.82;;;7.78;;
75272;SDS011;63869;52.344;16.928;2023-04-24T08:48:15;13.02;;;8.52;;
75272;SDS011;63869;52.344;16.928;2023-04-24T08:50:41;13.88;;;8.20;;
75272;SDS011;63869;52.344;16.928;2023-04-24T08:53:08;12.27;;;7.80;;
75272;SDS011;63869;52.344;16.928;2023-04-24T08:55:33;10.27;;;7.90;;
75272;SDS011;63869;52.344;16.928;2023-04-24T08:57:59;12.10;;;7.70;;
75272;SDS011;63869;52.344;16.928;2023-04-24T09:00:26;11.98;;;8.43;;
75272;SDS011;63869;52.344;16.928;2023-04-24T09:02:52;13.05;;;8.38;;
75272;SDS011;63869;52.344;16.928;2023-04-24T09:05:18;10.55;;;7.60;;
75272;SDS011;63869;52.344;16.928;2023-04-24T09:07:49;12.43;;;8.00;;
75272;SDS011;63869;52.344;16.928;2023-04-24T09:10:18;12.35;;;7.70;;
75272;SDS011;63869;52.344;16.928;2023-04-24T09:12:44;12.75;;;7.65;;
75272;SDS011;63869;52.344;16.928;2023-04-24T09:15:10;10.82;;;8.00;;
75272;SDS011;63869;52.344;16.928;2023-04-24T09:17:36;10.55;;;8.40;;
75272;SDS011;63869;52.344;16.928;2023-04-24T09:20:02;12.13;;;7.82;;
75272;SDS011;63869;52.344;16.928;2023-04-24T09:22:30;12.25;;;8.45;;
75272;SDS011;63869;52.344;16.928;2023-04-24T09:24:59;10.23;;;7.90;;
75272;SDS011;63869;52.344;16.928;2023-04-24T09:27:30;11.32;;;8.57;;
75272;SDS011;63869;52.344;16.928;2023-04-24T09:29:56;10.48;;;7.75;;
75272;SDS011;63869;52.344;16.928;2023-04-24T09:32:23;10.60;;;7.60;;
75272;SDS011;63869;52.344;16.928;2023-04-24T09:35:04;11.27;;;7.85;;
75272;SDS011;63869;52.344;16.928;2023-04-24T09:37:34;11.55;;;8.02;;
75272;SDS011;63869;52.344;16.928;2023-04-24T09:40:12;10.05;;;7.75;;
75272;SDS011;63869;52.344;16.928;2023-04-24T09:42:43;11.25;;;6.30;;
75272;SDS011;63869;52.344;16.928;2023-04-24T09:45:18;9.13;;;6.43;;
75272;SDS011;63869;52.344;16.928;2023-04-24T09:47:43;9.32;;;6.78;;
75272;SDS011;63869;52.344;16.928;2023-04-24T09:50:09;9.50;;;6.97;;
75272;SDS011;63869;52.344;16.928;2023-04-24T09:52:36;10.10;;;6.60;;
75272;SDS011;63869;52.344;16.928;2023-04-24T09:55:10;13.50;;;7.40;;
75272;SDS011;63869;52.344;16.928;2023-04-24T09:57:42;10.85;;;6.20;;
75272;SDS011;63869;52.344;16.928;2023-04-24T10:00:12;12.40;;;6.95;;
75272;SDS011;63869;52.344;16.928;2023-04-24T10:02:38;9.95;;;6.05;;
75272;SDS011;63869;52.344;16.928;2023-04-24T10:05:04;8.25;;;6.20;;
75272;SDS011;63869;52.344;16.928;2023-04-24T10:07:32;7.70;;;6.22;;
75272;SDS011;63869;52.344;16.928;2023-04-24T10:09:57;10.35;;;6.85;;
75272;SDS011;63869;52.344;16.928;2023-04-24T10:12:23;8.40;;;5.43;;
75272;SDS011;63869;52.344;16.928;2023-04-24T10:14:50;8.32;;;6.00;;
75272;SDS011;63869;52.344;16.928;2023-04-24T10:17:15;9.27;;;6.15;;
75272;SDS011;63869;52.344;16.928;2023-04-24T10:19:41;9.68;;;6.35;;
75272;SDS011;63869;52.344;16.928;2023-04-24T10:22:08;8.55;;;6.45;;
75272;SDS011;63869;52.344;16.928;2023-04-24T10:24:34;10.13;;;6.53;;
75272;SDS011;63869;52.344;16.928;2023-04-24T10:27:02;8.15;;;5.70;;
75272;SDS011;63869;52.344;16.928;2023-04-24T10:29:28;10.77;;;5.88;;
75272;SDS011;63869;52.344;16.928;2023-04-24T10:31:56;7.90;;;5.53;;
75272;SDS011;63869;52.344;16.928;2023-04-24T10:34:21;7.80;;;6.25;;
75272;SDS011;63869;52.344;16.928;2023-04-24T10:36:49;9.43;;;5.65;;
75272;SDS011;63869;52.344;16.928;2023-04-24T10:39:17;8.57;;;6.82;;
75272;SDS011;63869;52.344;16.928;2023-04-24T10:41:45;7.97;;;6.18;;
75272;SDS011;63869;52.344;16.928;2023-04-24T10:44:14;9.15;;;6.53;;
75272;SDS011;63869;52.344;16.928;2023-04-24T10:46:46;8.15;;;6.22;;
75272;SDS011;63869;52.344;16.928;2023-04-24T10:49:19;13.75;;;6.13;;
75272;SDS011;63869;52.344;16.928;2023-04-24T10:51:54;6.63;;;5.85;;
75272;SDS011;63869;52.344;16.928;2023-04-24T10:59:43;8.27;;;6.30;;
75272;SDS011;63869;52.344;16.928;2023-04-24T11:02:08;7.78;;;6.40;;
75272;SDS011;63869;52.344;16.928;2023-04-24T11:04:34;9.02;;;6.25;;
75272;SDS011;63869;52.344;16.928;2023-04-24T11:07:00;8.75;;;5.57;;
75272;SDS011;63869;52.344;16.928;2023-04-24T11:09:27;5.50;;;4.85;;
75272;SDS011;63869;52.344;16.928;2023-04-24T11:12:02;6.68;;;5.00;;
75272;SDS011;63869;52.344;16.928;2023-04-24T11:17:28;4.38;;;3.70;;
75272;SDS011;63869;52.344;16.928;2023-04-24T11:19:53;4.68;;;3.40;;
75272;SDS011;63869;52.344;16.928;2023-04-24T11:22:26;4.82;;;4.00;;
75272;SDS011;63869;52.344;16.928;2023-04-24T11:24:54;5.10;;;3.67;;
75272;SDS011;63869;52.344;16.928;2023-04-24T11:27:20;4.78;;;3.75;;
75272;SDS011;63869;52.344;16.928;2023-04-24T11:29:48;5.68;;;3.80;;
75272;SDS011;63869;52.344;16.928;2023-04-24T11:32:29;4.90;;;3.30;;
75272;SDS011;63869;52.344;16.928;2023-04-24T11:34:58;4.32;;;3.40;;
75272;SDS011;63869;52.344;16.928;2023-04-24T11:37:35;4.20;;;3.20;;
75272;SDS011;63869;52.344;16.928;2023-04-24T11:40:06;5.13;;;3.65;;
75272;SDS011;63869;52.344;16.928;2023-04-24T11:42:33;4.35;;;3.72;;
75272;SDS011;63869;52.344;16.928;2023-04-24T11:45:02;3.75;;;3.25;;
75272;SDS011;63869;52.344;16.928;2023-04-24T11:47:32;3.88;;;3.03;;
75272;SDS011;63869;52.344;16.928;2023-04-24T11:50:01;5.22;;;3.50;;
75272;SDS011;63869;52.344;16.928;2023-04-24T11:52:28;6.38;;;3.20;;
75272;SDS011;63869;52.344;16.928;2023-04-24T11:55:01;3.92;;;3.22;;
75272;SDS011;63869;52.344;16.928;2023-04-24T11:57:26;7.03;;;3.58;;
75272;SDS011;63869;52.344;16.928;2023-04-24T11:59:53;4.40;;;3.30;;
75272;SDS011;63869;52.344;16.928;2023-04-24T12:02:22;4.65;;;3.50;;
75272;SDS011;63869;52.344;16.928;2023-04-24T12:04:48;4.10;;;3.45;;
75272;SDS011;63869;52.344;16.928;2023-04-24T12:07:15;3.90;;;3.22;;
75272;SDS011;63869;52.344;16.928;2023-04-24T12:09:41;4.05;;;3.45;;
75272;SDS011;63869;52.344;16.928;2023-04-24T12:12:11;4.80;;;3.70;;
75272;SDS011;63869;52.344;16.928;2023-04-24T12:14:42;5.55;;;3.90;;
75272;SDS011;63869;52.344;16.928;2023-04-24T12:17:23;6.57;;;4.05;;
75272;SDS011;63869;52.344;16.928;2023-04-24T12:19:56;4.57;;;3.70;;
75272;SDS011;63869;52.344;16.928;2023-04-24T12:22:23;11.40;;;4.10;;
75272;SDS011;63869;52.344;16.928;2023-04-24T12:25:02;5.18;;;3.80;;
75272;SDS011;63869;52.344;16.928;2023-04-24T12:27:29;8.02;;;5.00;;
75272;SDS011;63869;52.344;16.928;2023-04-24T12:30:02;6.97;;;4.38;;
75272;SDS011;63869;52.344;16.928;2023-04-24T12:32:29;3.95;;;3.30;;
75272;SDS011;63869;52.344;16.928;2023-04-24T12:34:55;5.43;;;3.72;;
75272;SDS011;63869;52.344;16.928;2023-04-24T12:37:22;3.70;;;3.20;;
75272;SDS011;63869;52.344;16.928;2023-04-24T12:42:27;4.53;;;2.70;;
75272;SDS011;63869;52.344;16.928;2023-04-24T12:45:01;5.57;;;3.03;;
75272;SDS011;63869;52.344;16.928;2023-04-24T12:47:31;5.30;;;2.88;;
75272;SDS011;63869;52.344;16.928;2023-04-24T12:49:57;4.18;;;3.20;;
75272;SDS011;63869;52.344;16.928;2023-04-24T12:52:23;5.80;;;3.05;;
75272;SDS011;63869;52.344;16.928;2023-04-24T12:54:49;6.50;;;3.28;;
75272;SDS011;63869;52.344;16.928;2023-04-24T12:57:16;6.03;;;3.10;;
75272;SDS011;63869;52.344;16.928;2023-04-24T12:59:43;4.28;;;2.90;;
75272;SDS011;63869;52.344;16.928;2023-04-24T13:02:09;5.68;;;2.85;;
75272;SDS011;63869;52.344;16.928;2023-04-24T13:04:35;4.40;;;2.80;;
75272;SDS011;63869;52.344;16.928;2023-04-24T13:07:00;5.82;;;3.17;;
75272;SDS011;63869;52.344;16.928;2023-04-24T13:09:25;7.38;;;2.80;;
75272;SDS011;63869;52.344;16.928;2023-04-24T13:11:51;5.05;;;2.80;;
75272;SDS011;63869;52.344;16.928;2023-04-24T13:14:16;3.33;;;2.53;;
75272;SDS011;63869;52.344;16.928;2023-04-24T13:16:44;3.10;;;2.50;;
75272;SDS011;63869;52.344;16.928;2023-04-24T13:19:10;6.10;;;2.60;;
75272;SDS011;63869;52.344;16.928;2023-04-24T13:21:35;5.28;;;2.40;;
75272;SDS011;63869;52.344;16.928;2023-04-24T13:24:00;3.67;;;2.25;;
75272;SDS011;63869;52.344;16.928;2023-04-24T13:26:26;5.05;;;2.20;;
75272;SDS011;63869;52.344;16.928;2023-04-24T13:28:51;3.40;;;2.50;;
75272;SDS011;63869;52.344;16.928;2023-04-24T13:31:16;3.78;;;2.45;;
75272;SDS011;63869;52.344;16.928;2023-04-24T13:33:42;6.68;;;2.58;;
75272;SDS011;63869;52.344;16.928;2023-04-24T13:36:07;5.25;;;2.67;;
75272;SDS011;63869;52.344;16.928;2023-04-24T13:38:32;10.13;;;3.15;;
75272;SDS011;63869;52.344;16.928;2023-04-24T13:40:58;4.72;;;2.47;;
75272;SDS011;63869;52.344;16.928;2023-04-24T13:43:23;4.43;;;2.20;;
75272;SDS011;63869;52.344;16.928;2023-04-24T13:45:48;5.00;;;2.30;;
75272;SDS011;63869;52.344;16.928;2023-04-24T13:48:14;6.43;;;1.73;;
75272;SDS011;63869;52.344;16.928;2023-04-24T13:50:40;1.70;;;1.60;;
75272;SDS011;63869;52.344;16.928;2023-04-24T13:53:06;15.50;;;2.15;;
75272;SDS011;63869;52.344;16.928;2023-04-24T13:55:32;2.00;;;1.60;;
75272;SDS011;63869;52.344;16.928;2023-04-24T13:57:57;2.05;;;1.67;;
75272;SDS011;63869;52.344;16.928;2023-04-24T14:00:22;2.15;;;1.60;;
75272;SDS011;63869;52.344;16.928;2023-04-24T14:02:48;4.80;;;1.65;;
75272;SDS011;63869;52.344;16.928;2023-04-24T14:05:13;2.42;;;1.55;;
75272;SDS011;63869;52.344;16.928;2023-04-24T14:07:40;2.92;;;1.73;;
75272;SDS011;63869;52.344;16.928;2023-04-24T14:10:06;5.78;;;1.70;;
75272;SDS011;63869;52.344;16.928;2023-04-24T14:12:31;4.57;;;1.70;;
75272;SDS011;63869;52.344;16.928;2023-04-24T14:14:57;3.85;;;1.70;;
75272;SDS011;63869;52.344;16.928;2023-04-24T14:17:22;4.95;;;1.77;;
75272;SDS011;63869;52.344;16.928;2023-04-24T14:19:47;2.05;;;1.77;;
75272;SDS011;63869;52.344;16.928;2023-04-24T14:22:13;8.38;;;1.88;;
75272;SDS011;63869;52.344;16.928;2023-04-24T14:24:38;4.45;;;1.80;;
75272;SDS011;63869;52.344;16.928;2023-04-24T14:27:03;4.78;;;1.77;;